sensor_id;sensor_type;location;lat;lon;timestamp;temperature;humidity
23669;DHT22;12011;47.422;15.018;2023-12-20T00:02:26;-5.00;99.90
23669;DHT22;12011;47.422;15.018;2023-12-20T00:05:06;-5.00;99.90
23669;DHT22;12011;47.422;15.018;2023-12-20T00:07:36;-5.00;99.90
23669;DHT22;12011;47.422;15.018;2023-12-20T00:10:09;-5.00;99.90
23669;DHT22;12011;47.422;15.018;2023-12-20T00:12:49;-5.00;99.90
23669;DHT22;12011;47.422;15.018;2023-12-20T00:15:19;-5.20;99.90
23669;DHT22;12011;47.422;15.018;2023-12-20T00:17:50;-4.30;99.90
23669;DHT22;12011;47.422;15.018;2023-12-20T00:20:20;-5.20;99.90
23669;DHT22;12011;47.422;15.018;2023-12-20T00:22:56;-4.20;99.90
23669;DHT22;12011;47.422;15.018;2023-12-20T00:25:30;-5.10;99.90
23669;DHT22;12011;47.422;15.018;2023-12-20T00:28:05;-4.10;99.90
23669;DHT22;12011;47.422;15.018;2023-12-20T00:30:37;-5.10;99.90
23669;DHT22;12011;47.422;15.018;2023-12-20T00:33:08;-4.20;99.90
23669;DHT22;12011;47.422;15.018;2023-12-20T00:35:46;-4.70;99.90
23669;DHT22;12011;47.422;15.018;2023-12-20T00:38:15;-5.10;99.90
23669;DHT22;12011;47.422;15.018;2023-12-20T00:40:46;-5.30;99.90
23669;DHT22;12011;47.422;15.018;2023-12-20T00:43:23;-4.20;99.90
23669;DHT22;12011;47.422;15.018;2023-12-20T00:45:54;-5.30;99.90
23669;DHT22;12011;47.422;15.018;2023-12-20T00:48:32;-5.30;99.90
23669;DHT22;12011;47.422;15.018;2023-12-20T00:51:07;-5.10;99.90
23669;DHT22;12011;47.422;15.018;2023-12-20T00:53:39;-5.20;99.90
23669;DHT22;12011;47.422;15.018;2023-12-20T00:56:16;-4.50;99.90
23669;DHT22;12011;47.422;15.018;2023-12-20T00:58:54;-5.50;99.90
23669;DHT22;12011;47.422;15.018;2023-12-20T01:01:33;-5.30;99.90
23669;DHT22;12011;47.422;15.018;2023-12-20T01:04:25;-5.40;99.90
23669;DHT22;12011;47.422;15.018;2023-12-20T01:07:08;-5.30;99.90
23669;DHT22;12011;47.422;15.018;2023-12-20T01:09:40;-4.60;99.90
23669;DHT22;12011;47.422;15.018;2023-12-20T01:15:36;-5.20;99.90
23669;DHT22;12011;47.422;15.018;2023-12-20T03:10:18;-4.90;99.90
23669;DHT22;12011;47.422;15.018;2023-12-20T03:12:51;-4.90;99.90
23669;DHT22;12011;47.422;15.018;2023-12-20T03:15:24;-5.00;99.90
23669;DHT22;12011;47.422;15.018;2023-12-20T03:18:03;-3.90;99.90
23669;DHT22;12011;47.422;15.018;2023-12-20T03:20:36;-3.60;99.90
23669;DHT22;12011;47.422;15.018;2023-12-20T03:23:15;-4.20;99.90
23669;DHT22;12011;47.422;15.018;2023-12-20T03:25:48;-4.20;99.90
23669;DHT22;12011;47.422;15.018;2023-12-20T03:28:26;-3.80;99.90
23669;DHT22;12011;47.422;15.018;2023-12-20T03:30:59;-4.90;99.90
23669;DHT22;12011;47.422;15.018;2023-12-20T03:33:31;-4.50;99.90
23669;DHT22;12011;47.422;15.018;2023-12-20T03:36:06;-5.10;99.90
23669;DHT22;12011;47.422;15.018;2023-12-20T03:38:39;-5.10;99.90
23669;DHT22;12011;47.422;15.018;2023-12-20T03:41:13;-4.70;99.90
23669;DHT22;12011;47.422;15.018;2023-12-20T03:43:49;-5.30;99.90
23669;DHT22;12011;47.422;15.018;2023-12-20T03:46:18;-5.40;99.90
23669;DHT22;12011;47.422;15.018;2023-12-20T03:48:50;-4.20;99.90
23669;DHT22;12011;47.422;15.018;2023-12-20T03:51:24;-4.80;99.90
23669;DHT22;12011;47.422;15.018;2023-12-20T03:54:13;-5.40;99.90
23669;DHT22;12011;47.422;15.018;2023-12-20T03:56:50;-4.10;99.90
23669;DHT22;12011;47.422;15.018;2023-12-20T03:59:28;-4.30;99.90
23669;DHT22;12011;47.422;15.018;2023-12-20T04:01:59;-5.40;99.90
23669;DHT22;12011;47.422;15.018;2023-12-20T04:04:37;-5.10;99.90
23669;DHT22;12011;47.422;15.018;2023-12-20T04:07:13;-5.40;99.90
23669;DHT22;12011;47.422;15.018;2023-12-20T04:09:44;-5.50;99.90
23669;DHT22;12011;47.422;15.018;2023-12-20T04:12:24;-4.30;99.90
23669;DHT22;12011;47.422;15.018;2023-12-20T04:15:00;-5.50;99.90
23669;DHT22;12011;47.422;15.018;2023-12-20T04:17:43;-4.80;99.90
23669;DHT22;12011;47.422;15.018;2023-12-20T04:20:14;-4.20;99.90
23669;DHT22;12011;47.422;15.018;2023-12-20T04:22:51;-5.70;99.90
23669;DHT22;12011;47.422;15.018;2023-12-20T04:25:25;-5.90;99.90
23669;DHT22;12011;47.422;15.018;2023-12-20T04:28:05;-5.80;99.90
23669;DHT22;12011;47.422;15.018;2023-12-20T04:30:38;-5.70;99.90
23669;DHT22;12011;47.422;15.018;2023-12-20T04:33:08;-5.50;99.90
23669;DHT22;12011;47.422;15.018;2023-12-20T04:35:41;-5.80;99.90
23669;DHT22;12011;47.422;15.018;2023-12-20T04:38:13;-5.90;99.90
23669;DHT22;12011;47.422;15.018;2023-12-20T04:40:43;-5.70;99.90
23669;DHT22;12011;47.422;15.018;2023-12-20T04:43:20;-5.50;99.90
23669;DHT22;12011;47.422;15.018;2023-12-20T04:45:52;-5.90;99.90
23669;DHT22;12011;47.422;15.018;2023-12-20T04:48:23;-5.90;99.90
23669;DHT22;12011;47.422;15.018;2023-12-20T04:51:04;-5.80;99.90
23669;DHT22;12011;47.422;15.018;2023-12-20T04:53:36;-6.40;99.90
23669;DHT22;12011;47.422;15.018;2023-12-20T04:56:09;-5.90;99.90
23669;DHT22;12011;47.422;15.018;2023-12-20T04:58:43;-5.80;99.90
23669;DHT22;12011;47.422;15.018;2023-12-20T05:01:20;-5.80;99.90
23669;DHT22;12011;47.422;15.018;2023-12-20T05:03:54;-5.80;99.90
23669;DHT22;12011;47.422;15.018;2023-12-20T05:06:25;-5.80;99.90
23669;DHT22;12011;47.422;15.018;2023-12-20T05:09:04;-5.90;99.90
23669;DHT22;12011;47.422;15.018;2023-12-20T05:11:43;-5.80;99.90
23669;DHT22;12011;47.422;15.018;2023-12-20T05:14:19;-5.90;99.90
23669;DHT22;12011;47.422;15.018;2023-12-20T05:16:48;-5.90;99.90
23669;DHT22;12011;47.422;15.018;2023-12-20T05:19:19;-6.10;99.90
23669;DHT22;12011;47.422;15.018;2023-12-20T05:21:52;-6.10;99.90
23669;DHT22;12011;47.422;15.018;2023-12-20T05:24:24;-6.10;99.90
23669;DHT22;12011;47.422;15.018;2023-12-20T05:26:54;-6.10;99.90
23669;DHT22;12011;47.422;15.018;2023-12-20T05:29:26;-6.00;99.90
23669;DHT22;12011;47.422;15.018;2023-12-20T05:31:58;-5.90;99.90
23669;DHT22;12011;47.422;15.018;2023-12-20T05:34:28;-5.90;99.90
23669;DHT22;12011;47.422;15.018;2023-12-20T05:36:58;-5.80;99.90
23669;DHT22;12011;47.422;15.018;2023-12-20T05:39:27;-5.80;99.90
23669;DHT22;12011;47.422;15.018;2023-12-20T05:41:57;-5.70;99.90
23669;DHT22;12011;47.422;15.018;2023-12-20T05:44:29;-5.70;99.90
23669;DHT22;12011;47.422;15.018;2023-12-20T05:46:58;-5.80;99.90
23669;DHT22;12011;47.422;15.018;2023-12-20T05:49:28;-5.90;99.90
23669;DHT22;12011;47.422;15.018;2023-12-20T05:51:57;-5.80;99.90
23669;DHT22;12011;47.422;15.018;2023-12-20T05:54:27;-5.90;99.90
23669;DHT22;12011;47.422;15.018;2023-12-20T05:56:56;-5.30;99.90
23669;DHT22;12011;47.422;15.018;2023-12-20T05:59:29;-5.90;99.90
23669;DHT22;12011;47.422;15.018;2023-12-20T06:01:58;-5.80;99.90
23669;DHT22;12011;47.422;15.018;2023-12-20T06:04:28;-5.70;99.90
23669;DHT22;12011;47.422;15.018;2023-12-20T06:06:57;-5.70;99.90
23669;DHT22;12011;47.422;15.018;2023-12-20T06:09:27;-5.70;99.90
23669;DHT22;12011;47.422;15.018;2023-12-20T06:11:56;-5.70;99.90
23669;DHT22;12011;47.422;15.018;2023-12-20T06:14:28;-5.10;99.90
23669;DHT22;12011;47.422;15.018;2023-12-20T06:16:58;-5.60;99.90
23669;DHT22;12011;47.422;15.018;2023-12-20T06:19:28;-5.50;99.90
23669;DHT22;12011;47.422;15.018;2023-12-20T06:21:57;-5.40;99.90
23669;DHT22;12011;47.422;15.018;2023-12-20T06:24:27;-4.60;99.90
23669;DHT22;12011;47.422;15.018;2023-12-20T06:26:56;-5.30;99.90
23669;DHT22;12011;47.422;15.018;2023-12-20T06:29:26;-4.30;99.90
23669;DHT22;12011;47.422;15.018;2023-12-20T06:31:58;-4.10;99.90
23669;DHT22;12011;47.422;15.018;2023-12-20T06:34:27;-5.10;99.90
23669;DHT22;12011;47.422;15.018;2023-12-20T06:36:56;-4.00;99.90
23669;DHT22;12011;47.422;15.018;2023-12-20T06:39:26;-3.80;99.90
23669;DHT22;12011;47.422;15.018;2023-12-20T06:41:56;-4.80;99.90
23669;DHT22;12011;47.422;15.018;2023-12-20T06:44:29;-4.80;99.90
23669;DHT22;12011;47.422;15.018;2023-12-20T06:46:58;-4.10;99.90
23669;DHT22;12011;47.422;15.018;2023-12-20T06:49:27;-4.50;99.90
23669;DHT22;12011;47.422;15.018;2023-12-20T06:51:57;-3.50;99.90
23669;DHT22;12011;47.422;15.018;2023-12-20T07:03:10;-4.30;99.90
23669;DHT22;12011;47.422;15.018;2023-12-20T07:05:39;-4.30;99.90
23669;DHT22;12011;47.422;15.018;2023-12-20T07:08:09;-4.10;99.90
23669;DHT22;12011;47.422;15.018;2023-12-20T07:10:40;-2.90;99.90
23669;DHT22;12011;47.422;15.018;2023-12-20T07:13:10;-4.00;99.90
23669;DHT22;12011;47.422;15.018;2023-12-20T07:15:40;-3.30;99.90
23669;DHT22;12011;47.422;15.018;2023-12-20T07:18:12;-3.50;99.90
23669;DHT22;12011;47.422;15.018;2023-12-20T07:20:42;-3.20;99.90
23669;DHT22;12011;47.422;15.018;2023-12-20T07:23:12;-2.70;99.90
23669;DHT22;12011;47.422;15.018;2023-12-20T07:25:52;-3.00;99.90
23669;DHT22;12011;47.422;15.018;2023-12-20T07:28:39;-3.40;99.90
23669;DHT22;12011;47.422;15.018;2023-12-20T07:31:09;-2.10;99.90
23669;DHT22;12011;47.422;15.018;2023-12-20T07:34:00;-3.20;99.90
23669;DHT22;12011;47.422;15.018;2023-12-20T07:36:29;-3.10;99.90
23669;DHT22;12011;47.422;15.018;2023-12-20T07:39:02;-3.10;99.90
23669;DHT22;12011;47.422;15.018;2023-12-20T07:48:35;-2.80;99.90
23669;DHT22;12011;47.422;15.018;2023-12-20T07:51:07;-2.70;99.90
23669;DHT22;12011;47.422;15.018;2023-12-20T07:53:37;-2.60;99.90
23669;DHT22;12011;47.422;15.018;2023-12-20T07:56:14;-2.00;99.90
23669;DHT22;12011;47.422;15.018;2023-12-20T07:58:44;-2.40;99.90
23669;DHT22;12011;47.422;15.018;2023-12-20T08:01:16;-2.00;99.90
23669;DHT22;12011;47.422;15.018;2023-12-20T08:03:47;-2.60;99.90
23669;DHT22;12011;47.422;15.018;2023-12-20T08:06:20;-2.40;99.90
23669;DHT22;12011;47.422;15.018;2023-12-20T08:08:50;-2.00;99.90
23669;DHT22;12011;47.422;15.018;2023-12-20T08:11:20;-2.10;99.90
23669;DHT22;12011;47.422;15.018;2023-12-20T08:13:49;-2.00;99.90
23669;DHT22;12011;47.422;15.018;2023-12-20T08:16:19;-2.00;99.90
23669;DHT22;12011;47.422;15.018;2023-12-20T08:18:49;-2.00;99.90
23669;DHT22;12011;47.422;15.018;2023-12-20T08:21:21;-2.00;99.90
23669;DHT22;12011;47.422;15.018;2023-12-20T08:23:51;-2.10;99.90
23669;DHT22;12011;47.422;15.018;2023-12-20T08:26:20;-2.10;99.90
23669;DHT22;12011;47.422;15.018;2023-12-20T08:28:50;-2.20;99.90
23669;DHT22;12011;47.422;15.018;2023-12-20T08:31:20;-1.60;99.90
23669;DHT22;12011;47.422;15.018;2023-12-20T08:33:50;-2.20;99.90
23669;DHT22;12011;47.422;15.018;2023-12-20T08:36:22;-2.20;99.90
23669;DHT22;12011;47.422;15.018;2023-12-20T08:38:51;-2.10;99.90
23669;DHT22;12011;47.422;15.018;2023-12-20T08:41:21;-2.00;99.90
23669;DHT22;12011;47.422;15.018;2023-12-20T08:43:51;-1.90;99.90
23669;DHT22;12011;47.422;15.018;2023-12-20T08:46:20;-1.90;99.90
23669;DHT22;12011;47.422;15.018;2023-12-20T08:48:49;-1.20;99.90
23669;DHT22;12011;47.422;15.018;2023-12-20T08:51:21;-1.80;99.90
23669;DHT22;12011;47.422;15.018;2023-12-20T08:53:51;-1.70;99.90
23669;DHT22;12011;47.422;15.018;2023-12-20T08:56:21;-1.60;99.90
23669;DHT22;12011;47.422;15.018;2023-12-20T08:58:50;-0.40;99.90
23669;DHT22;12011;47.422;15.018;2023-12-20T09:01:20;-1.10;99.90
23669;DHT22;12011;47.422;15.018;2023-12-20T09:03:49;-0.70;99.90
23669;DHT22;12011;47.422;15.018;2023-12-20T09:06:21;-1.00;99.90
23669;DHT22;12011;47.422;15.018;2023-12-20T09:08:51;-0.90;99.90
23669;DHT22;12011;47.422;15.018;2023-12-20T09:11:20;-0.80;99.90
23669;DHT22;12011;47.422;15.018;2023-12-20T09:13:50;-0.80;99.90
23669;DHT22;12011;47.422;15.018;2023-12-20T09:16:19;-0.20;99.90
23669;DHT22;12011;47.422;15.018;2023-12-20T09:18:49;-0.90;99.90
23669;DHT22;12011;47.422;15.018;2023-12-20T09:21:21;0.00;99.90
23669;DHT22;12011;47.422;15.018;2023-12-20T09:23:50;-1.00;99.90
23669;DHT22;12011;47.422;15.018;2023-12-20T09:26:19;-0.10;99.90
23669;DHT22;12011;47.422;15.018;2023-12-20T09:28:49;0.10;99.90
23669;DHT22;12011;47.422;15.018;2023-12-20T09:31:19;-0.20;99.90
23669;DHT22;12011;47.422;15.018;2023-12-20T09:33:48;-0.90;99.90
23669;DHT22;12011;47.422;15.018;2023-12-20T09:36:17;0.00;99.90
23669;DHT22;12011;47.422;15.018;2023-12-20T09:38:49;-0.70;99.90
23669;DHT22;12011;47.422;15.018;2023-12-20T09:41:20;-0.80;99.90
23669;DHT22;12011;47.422;15.018;2023-12-20T09:43:54;-0.80;99.90
23669;DHT22;12011;47.422;15.018;2023-12-20T09:46:27;0.30;99.90
23669;DHT22;12011;47.422;15.018;2023-12-20T09:48:59;0.50;99.90
23669;DHT22;12011;47.422;15.018;2023-12-20T09:51:30;0.30;99.90
23669;DHT22;12011;47.422;15.018;2023-12-20T09:54:03;0.40;99.90
23669;DHT22;12011;47.422;15.018;2023-12-20T09:56:34;-0.70;99.90
23669;DHT22;12011;47.422;15.018;2023-12-20T09:59:03;0.30;99.90
23669;DHT22;12011;47.422;15.018;2023-12-20T10:01:34;0.60;99.90
23669;DHT22;12011;47.422;15.018;2023-12-20T10:04:06;0.00;99.90
23669;DHT22;12011;47.422;15.018;2023-12-20T10:06:38;-0.60;99.90
23669;DHT22;12011;47.422;15.018;2023-12-20T10:09:11;0.30;99.90
23669;DHT22;12011;47.422;15.018;2023-12-20T10:11:41;-0.40;99.90
23669;DHT22;12011;47.422;15.018;2023-12-20T10:14:11;0.40;99.90
23669;DHT22;12011;47.422;15.018;2023-12-20T10:16:41;-0.40;99.90
23669;DHT22;12011;47.422;15.018;2023-12-20T10:19:10;0.20;99.90
23669;DHT22;12011;47.422;15.018;2023-12-20T10:21:41;-0.20;99.90
23669;DHT22;12011;47.422;15.018;2023-12-20T10:24:17;-0.20;99.90
23669;DHT22;12011;47.422;15.018;2023-12-20T10:26:46;0.70;99.90
23669;DHT22;12011;47.422;15.018;2023-12-20T10:29:16;0.30;99.90
23669;DHT22;12011;47.422;15.018;2023-12-20T10:31:46;0.60;99.90
23669;DHT22;12011;47.422;15.018;2023-12-20T10:34:16;0.40;99.90
23669;DHT22;12011;47.422;15.018;2023-12-20T10:36:45;-0.10;99.90
23669;DHT22;12011;47.422;15.018;2023-12-20T10:39:18;0.80;99.90
23669;DHT22;12011;47.422;15.018;2023-12-20T10:41:48;0.80;99.90
23669;DHT22;12011;47.422;15.018;2023-12-20T10:44:18;0.70;99.90
23669;DHT22;12011;47.422;15.018;2023-12-20T10:46:48;0.80;99.90
23669;DHT22;12011;47.422;15.018;2023-12-20T10:49:25;0.30;99.90
23669;DHT22;12011;47.422;15.018;2023-12-20T10:51:57;0.40;99.90
23669;DHT22;12011;47.422;15.018;2023-12-20T10:54:33;1.10;99.90
23669;DHT22;12011;47.422;15.018;2023-12-20T10:57:07;1.20;99.90
23669;DHT22;12011;47.422;15.018;2023-12-20T10:59:39;0.70;99.90
23669;DHT22;12011;47.422;15.018;2023-12-20T11:02:13;1.10;99.90
23669;DHT22;12011;47.422;15.018;2023-12-20T11:04:55;0.80;99.90
23669;DHT22;12011;47.422;15.018;2023-12-20T11:07:35;1.50;99.90
23669;DHT22;12011;47.422;15.018;2023-12-20T11:10:18;1.00;99.90
23669;DHT22;12011;47.422;15.018;2023-12-20T11:12:57;1.20;99.90
23669;DHT22;12011;47.422;15.018;2023-12-20T11:15:31;1.30;99.90
23669;DHT22;12011;47.422;15.018;2023-12-20T11:18:00;1.50;99.90
23669;DHT22;12011;47.422;15.018;2023-12-20T11:20:37;1.70;99.90
23669;DHT22;12011;47.422;15.018;2023-12-20T11:23:09;1.60;99.90
23669;DHT22;12011;47.422;15.018;2023-12-20T11:25:53;1.60;99.90
23669;DHT22;12011;47.422;15.018;2023-12-20T11:28:26;1.50;99.90
23669;DHT22;12011;47.422;15.018;2023-12-20T11:30:57;1.60;99.90
23669;DHT22;12011;47.422;15.018;2023-12-20T11:33:36;1.80;99.90
23669;DHT22;12011;47.422;15.018;2023-12-20T11:36:13;1.90;99.90
23669;DHT22;12011;47.422;15.018;2023-12-20T11:38:55;1.70;99.90
23669;DHT22;12011;47.422;15.018;2023-12-20T11:41:28;2.00;99.90
23669;DHT22;12011;47.422;15.018;2023-12-20T11:43:58;2.00;99.90
23669;DHT22;12011;47.422;15.018;2023-12-20T11:46:28;2.50;99.90
23669;DHT22;12011;47.422;15.018;2023-12-20T11:49:00;2.40;99.90
23669;DHT22;12011;47.422;15.018;2023-12-20T11:51:30;2.20;99.90
23669;DHT22;12011;47.422;15.018;2023-12-20T11:53:59;2.40;99.90
23669;DHT22;12011;47.422;15.018;2023-12-20T11:56:31;2.40;99.90
23669;DHT22;12011;47.422;15.018;2023-12-20T11:59:01;2.30;99.90
23669;DHT22;12011;47.422;15.018;2023-12-20T12:01:31;2.60;99.90
23669;DHT22;12011;47.422;15.018;2023-12-20T12:04:05;2.30;99.90
23669;DHT22;12011;47.422;15.018;2023-12-20T12:06:34;2.20;99.90
23669;DHT22;12011;47.422;15.018;2023-12-20T12:09:04;2.40;99.90
23669;DHT22;12011;47.422;15.018;2023-12-20T12:11:36;2.60;99.90
23669;DHT22;12011;47.422;15.018;2023-12-20T12:14:07;2.70;99.90
23669;DHT22;12011;47.422;15.018;2023-12-20T12:16:37;2.90;99.90
23669;DHT22;12011;47.422;15.018;2023-12-20T12:19:06;3.10;99.90
23669;DHT22;12011;47.422;15.018;2023-12-20T12:21:35;3.30;99.90
23669;DHT22;12011;47.422;15.018;2023-12-20T12:24:09;3.30;99.90
23669;DHT22;12011;47.422;15.018;2023-12-20T12:26:41;3.60;99.90
23669;DHT22;12011;47.422;15.018;2023-12-20T12:29:11;3.70;99.90
23669;DHT22;12011;47.422;15.018;2023-12-20T12:31:40;3.60;99.90
23669;DHT22;12011;47.422;15.018;2023-12-20T12:34:10;3.60;99.90
23669;DHT22;12011;47.422;15.018;2023-12-20T12:36:40;3.50;99.90
23669;DHT22;12011;47.422;15.018;2023-12-20T12:39:12;3.50;99.90
23669;DHT22;12011;47.422;15.018;2023-12-20T12:41:45;3.50;99.90
23669;DHT22;12011;47.422;15.018;2023-12-20T12:44:14;3.50;99.90
23669;DHT22;12011;47.422;15.018;2023-12-20T12:46:44;3.40;99.90
23669;DHT22;12011;47.422;15.018;2023-12-20T12:49:16;3.30;99.90
23669;DHT22;12011;47.422;15.018;2023-12-20T12:51:45;3.10;99.90
23669;DHT22;12011;47.422;15.018;2023-12-20T12:54:15;3.20;99.90
23669;DHT22;12011;47.422;15.018;2023-12-20T12:56:47;3.30;99.90
23669;DHT22;12011;47.422;15.018;2023-12-20T12:59:19;3.10;99.90
23669;DHT22;12011;47.422;15.018;2023-12-20T13:01:48;2.90;99.90
23669;DHT22;12011;47.422;15.018;2023-12-20T13:04:18;2.80;99.90
23669;DHT22;12011;47.422;15.018;2023-12-20T13:06:47;2.70;99.90
23669;DHT22;12011;47.422;15.018;2023-12-20T13:09:17;2.70;99.90
23669;DHT22;12011;47.422;15.018;2023-12-20T13:11:50;2.80;99.90
23669;DHT22;12011;47.422;15.018;2023-12-20T13:14:19;2.60;99.90
23669;DHT22;12011;47.422;15.018;2023-12-20T13:16:48;2.50;99.90
23669;DHT22;12011;47.422;15.018;2023-12-20T13:19:18;2.60;99.90
23669;DHT22;12011;47.422;15.018;2023-12-20T13:21:47;2.60;99.90
23669;DHT22;12011;47.422;15.018;2023-12-20T13:24:17;2.70;99.90
23669;DHT22;12011;47.422;15.018;2023-12-20T13:26:49;2.70;99.90
23669;DHT22;12011;47.422;15.018;2023-12-20T13:29:19;2.80;99.90
23669;DHT22;12011;47.422;15.018;2023-12-20T13:31:49;2.70;99.90
23669;DHT22;12011;47.422;15.018;2023-12-20T13:34:19;2.80;99.90
23669;DHT22;12011;47.422;15.018;2023-12-20T13:36:48;2.80;99.90
23669;DHT22;12011;47.422;15.018;2023-12-20T13:39:18;2.70;99.90
23669;DHT22;12011;47.422;15.018;2023-12-20T13:41:50;2.60;99.90
23669;DHT22;12011;47.422;15.018;2023-12-20T13:44:19;2.50;99.90
23669;DHT22;12011;47.422;15.018;2023-12-20T13:46:49;2.50;99.90
23669;DHT22;12011;47.422;15.018;2023-12-20T13:49:18;2.50;99.90
23669;DHT22;12011;47.422;15.018;2023-12-20T13:51:51;2.60;99.90
23669;DHT22;12011;47.422;15.018;2023-12-20T13:54:21;2.50;99.90
23669;DHT22;12011;47.422;15.018;2023-12-20T13:56:53;2.40;99.90
23669;DHT22;12011;47.422;15.018;2023-12-20T13:59:23;2.40;99.90
23669;DHT22;12011;47.422;15.018;2023-12-20T14:01:53;2.50;99.90
23669;DHT22;12011;47.422;15.018;2023-12-20T14:04:23;2.50;99.90
23669;DHT22;12011;47.422;15.018;2023-12-20T14:06:52;2.50;99.90
23669;DHT22;12011;47.422;15.018;2023-12-20T14:09:21;2.40;99.90
23669;DHT22;12011;47.422;15.018;2023-12-20T14:11:54;2.40;99.90
23669;DHT22;12011;47.422;15.018;2023-12-20T14:14:23;2.40;99.90
23669;DHT22;12011;47.422;15.018;2023-12-20T14:16:53;2.30;99.90
23669;DHT22;12011;47.422;15.018;2023-12-20T14:19:22;2.40;99.90
23669;DHT22;12011;47.422;15.018;2023-12-20T14:21:51;2.30;99.90
23669;DHT22;12011;47.422;15.018;2023-12-20T14:24:21;2.20;99.90
23669;DHT22;12011;47.422;15.018;2023-12-20T14:26:53;1.90;99.90
23669;DHT22;12011;47.422;15.018;2023-12-20T14:29:24;1.80;99.90
23669;DHT22;12011;47.422;15.018;2023-12-20T14:31:54;1.70;99.90
23669;DHT22;12011;47.422;15.018;2023-12-20T14:34:23;1.60;99.90
23669;DHT22;12011;47.422;15.018;2023-12-20T14:36:53;1.50;99.90
23669;DHT22;12011;47.422;15.018;2023-12-20T14:39:22;1.60;99.90
23669;DHT22;12011;47.422;15.018;2023-12-20T14:41:54;1.80;99.90
23669;DHT22;12011;47.422;15.018;2023-12-20T14:44:23;1.50;99.90
23669;DHT22;12011;47.422;15.018;2023-12-20T14:46:53;1.80;99.90
23669;DHT22;12011;47.422;15.018;2023-12-20T14:49:22;1.10;99.90
23669;DHT22;12011;47.422;15.018;2023-12-20T14:51:57;1.20;99.90
23669;DHT22;12011;47.422;15.018;2023-12-20T14:54:26;1.30;99.90
23669;DHT22;12011;47.422;15.018;2023-12-20T14:57:19;1.00;99.90
23669;DHT22;12011;47.422;15.018;2023-12-20T14:59:56;1.00;99.90
23669;DHT22;12011;47.422;15.018;2023-12-20T15:03:01;0.90;99.90
23669;DHT22;12011;47.422;15.018;2023-12-20T15:05:40;0.70;99.90
23669;DHT22;12011;47.422;15.018;2023-12-20T15:08:29;0.90;99.90
23669;DHT22;12011;47.422;15.018;2023-12-20T15:10:59;1.40;99.90
23669;DHT22;12011;47.422;15.018;2023-12-20T15:14:00;1.60;99.90
23669;DHT22;12011;47.422;15.018;2023-12-20T15:16:35;1.60;99.90
23669;DHT22;12011;47.422;15.018;2023-12-20T16:00:15;0.60;99.90
23669;DHT22;12011;47.422;15.018;2023-12-20T16:02:45;0.50;99.90
23669;DHT22;12011;47.422;15.018;2023-12-20T16:05:15;0.90;99.90
23669;DHT22;12011;47.422;15.018;2023-12-20T16:07:45;1.20;99.90
23669;DHT22;12011;47.422;15.018;2023-12-20T16:10:14;0.90;99.90
23669;DHT22;12011;47.422;15.018;2023-12-20T16:12:44;0.30;99.90
23669;DHT22;12011;47.422;15.018;2023-12-20T16:15:10;0.50;99.90
23669;DHT22;12011;47.422;15.018;2023-12-20T16:17:43;1.10;99.90
23669;DHT22;12011;47.422;15.018;2023-12-20T16:20:13;0.90;99.90
23669;DHT22;12011;47.422;15.018;2023-12-20T16:22:43;0.40;99.90
23669;DHT22;12011;47.422;15.018;2023-12-20T16:25:12;1.20;99.90
23669;DHT22;12011;47.422;15.018;2023-12-20T16:27:42;0.60;99.90
23669;DHT22;12011;47.422;15.018;2023-12-20T16:30:16;1.30;99.90
23669;DHT22;12011;47.422;15.018;2023-12-20T16:32:46;0.20;99.90
23669;DHT22;12011;47.422;15.018;2023-12-20T16:35:16;0.20;99.90
23669;DHT22;12011;47.422;15.018;2023-12-20T16:37:46;1.20;99.90
23669;DHT22;12011;47.422;15.018;2023-12-20T16:40:16;0.60;99.90
23669;DHT22;12011;47.422;15.018;2023-12-20T16:42:50;0.30;99.90
23669;DHT22;12011;47.422;15.018;2023-12-20T16:45:24;0.50;99.90
23669;DHT22;12011;47.422;15.018;2023-12-20T16:47:54;0.80;99.90
23669;DHT22;12011;47.422;15.018;2023-12-20T16:50:23;0.40;99.90
23669;DHT22;12011;47.422;15.018;2023-12-20T16:52:52;0.50;99.90
23669;DHT22;12011;47.422;15.018;2023-12-20T16:55:22;1.20;99.90
23669;DHT22;12011;47.422;15.018;2023-12-20T16:57:51;1.10;99.90
23669;DHT22;12011;47.422;15.018;2023-12-20T17:00:24;0.70;99.90
23669;DHT22;12011;47.422;15.018;2023-12-20T17:02:53;0.40;99.90
23669;DHT22;12011;47.422;15.018;2023-12-20T17:05:22;1.10;99.90
23669;DHT22;12011;47.422;15.018;2023-12-20T17:07:52;1.30;99.90
23669;DHT22;12011;47.422;15.018;2023-12-20T17:10:21;1.10;99.90
23669;DHT22;12011;47.422;15.018;2023-12-20T17:12:51;1.30;99.90
23669;DHT22;12011;47.422;15.018;2023-12-20T17:15:20;1.10;99.90
23669;DHT22;12011;47.422;15.018;2023-12-20T17:17:52;1.10;99.90
23669;DHT22;12011;47.422;15.018;2023-12-20T17:20:22;1.00;99.90
23669;DHT22;12011;47.422;15.018;2023-12-20T17:22:52;0.70;99.90
23669;DHT22;12011;47.422;15.018;2023-12-20T17:25:21;1.30;99.90
23669;DHT22;12011;47.422;15.018;2023-12-20T17:27:51;1.10;99.90
23669;DHT22;12011;47.422;15.018;2023-12-20T17:30:22;1.30;99.90
23669;DHT22;12011;47.422;15.018;2023-12-20T17:32:54;1.20;99.90
23669;DHT22;12011;47.422;15.018;2023-12-20T17:35:24;1.30;99.90
23669;DHT22;12011;47.422;15.018;2023-12-20T17:37:53;1.30;99.90
23669;DHT22;12011;47.422;15.018;2023-12-20T17:40:24;0.80;99.90
23669;DHT22;12011;47.422;15.018;2023-12-20T17:42:55;0.40;99.90
23669;DHT22;12011;47.422;15.018;2023-12-20T17:45:24;1.00;99.90
23669;DHT22;12011;47.422;15.018;2023-12-20T17:47:57;0.70;99.90
23669;DHT22;12011;47.422;15.018;2023-12-20T17:50:26;1.20;99.90
23669;DHT22;12011;47.422;15.018;2023-12-20T17:52:58;0.90;99.90
23669;DHT22;12011;47.422;15.018;2023-12-20T17:55:29;1.30;99.90
23669;DHT22;12011;47.422;15.018;2023-12-20T17:57:59;1.70;99.90
23669;DHT22;12011;47.422;15.018;2023-12-20T18:00:32;1.70;99.90
23669;DHT22;12011;47.422;15.018;2023-12-20T18:03:06;2.00;99.90
23669;DHT22;12011;47.422;15.018;2023-12-20T18:05:36;2.00;99.90
23669;DHT22;12011;47.422;15.018;2023-12-20T18:08:06;2.30;99.90
23669;DHT22;12011;47.422;15.018;2023-12-20T18:10:35;2.30;99.90
23669;DHT22;12011;47.422;15.018;2023-12-20T18:13:05;2.10;99.90
23669;DHT22;12011;47.422;15.018;2023-12-20T18:15:34;2.00;99.90
23669;DHT22;12011;47.422;15.018;2023-12-20T18:18:07;1.90;99.90
23669;DHT22;12011;47.422;15.018;2023-12-20T18:20:38;1.80;99.90
23669;DHT22;12011;47.422;15.018;2023-12-20T18:23:07;1.80;99.90
23669;DHT22;12011;47.422;15.018;2023-12-20T18:25:37;1.80;99.90
23669;DHT22;12011;47.422;15.018;2023-12-20T18:28:06;1.80;99.90
23669;DHT22;12011;47.422;15.018;2023-12-20T18:30:36;1.70;99.90
23669;DHT22;12011;47.422;15.018;2023-12-20T18:33:08;1.70;99.90
23669;DHT22;12011;47.422;15.018;2023-12-20T18:35:38;1.60;99.90
23669;DHT22;12011;47.422;15.018;2023-12-20T18:38:09;1.60;99.90
23669;DHT22;12011;47.422;15.018;2023-12-20T18:40:39;1.70;99.90
23669;DHT22;12011;47.422;15.018;2023-12-20T18:43:13;1.70;99.90
23669;DHT22;12011;47.422;15.018;2023-12-20T18:45:43;1.60;99.90